Time;durP1;ratioP1;P1;durP2;ratioP2;P2;SDS_P1;SDS_P2;PMS_P1;PMS_P2;Temp;Humidity;BMP_temperature;BMP_pressure;BME280_temperature;BME280_humidity;BME280_pressure;Samples;Min_cycle;Max_cycle;Signal;HPM_P1;HPM_P2
2021/10/04 00:00:09;;;;;;;12.93;12.33;;;12.30;99.90;;;;;;5058726;28;20475;-69
2021/10/04 00:02:37;;;;;;;13.50;12.60;;;12.40;99.90;;;;;;5062268;28;20459;-69
2021/10/04 00:05:04;;;;;;;13.03;12.43;;;12.40;99.90;;;;;;5062256;28;20455;-71
2021/10/04 00:07:31;;;;;;;13.37;12.77;;;12.30;99.90;;;;;;5065972;28;20468;-71
2021/10/04 00:09:58;;;;;;;13.50;12.60;;;12.30;99.90;;;;;;5057871;28;20502;-70
2021/10/04 00:12:25;;;;;;;12.83;12.33;;;12.30;99.90;;;;;;5057419;28;20489;-71
2021/10/04 00:14:52;;;;;;;14.03;13.13;;;12.30;99.90;;;;;;5059605;28;20456;-71
2021/10/04 00:17:20;;;;;;;13.23;12.63;;;12.30;99.90;;;;;;5058807;28;20482;-70
2021/10/04 00:19:47;;;;;;;13.33;12.73;;;12.30;99.90;;;;;;5054330;28;20463;-71
2021/10/04 00:22:14;;;;;;;14.13;12.90;;;12.30;99.90;;;;;;5061160;28;20469;-71
2021/10/04 00:24:41;;;;;;;13.10;12.30;;;12.20;99.90;;;;;;5055634;28;20478;-71
2021/10/04 00:27:08;;;;;;;13.30;12.70;;;12.20;99.90;;;;;;5061042;28;20459;-73
2021/10/04 00:29:35;;;;;;;14.37;13.47;;;12.20;99.90;;;;;;5057587;28;20487;-71
2021/10/04 00:32:02;;;;;;;14.23;13.20;;;12.20;99.90;;;;;;5065479;28;20466;-71
2021/10/04 00:34:31;;;;;;;12.60;12.10;;;12.20;99.90;;;;;;5064927;28;20466;-72
2021/10/04 00:36:58;;;;;;;12.90;12.30;;;12.10;99.90;;;;;;5061864;28;20470;-71
2021/10/04 00:39:25;;;;;;;13.23;12.63;;;12.10;99.90;;;;;;5057670;28;20466;-72
2021/10/04 00:41:52;;;;;;;13.07;12.47;;;12.10;99.90;;;;;;5060627;28;20486;-72
2021/10/04 00:44:20;;;;;;;13.50;12.70;;;12.10;99.90;;;;;;5059154;28;20466;-73
2021/10/04 00:46:46;;;;;;;12.80;12.10;;;12.10;99.90;;;;;;5062763;28;20451;-71
2021/10/04 00:49:13;;;;;;;13.20;12.60;;;12.10;99.90;;;;;;5058686;28;20466;-72
2021/10/04 00:51:42;;;;;;;13.23;12.53;;;12.20;99.90;;;;;;5060357;28;20963;-71
2021/10/04 00:54:09;;;;;;;13.33;12.60;;;12.20;99.90;;;;;;5055120;28;20462;-70
2021/10/04 00:56:36;;;;;;;13.87;12.90;;;12.20;99.90;;;;;;5062309;28;20465;-71
2021/10/04 00:59:04;;;;;;;12.80;12.20;;;12.20;99.90;;;;;;5066954;28;20488;-71
2021/10/04 01:01:31;;;;;;;12.83;12.23;;;12.20;99.90;;;;;;5063186;28;21032;-72
2021/10/04 01:04:00;;;;;;;12.53;11.93;;;12.20;99.90;;;;;;5059263;28;20463;-71
2021/10/04 01:06:28;;;;;;;13.23;12.33;;;12.20;99.90;;;;;;5061846;28;21067;-72
2021/10/04 01:08:57;;;;;;;12.87;12.23;;;12.30;99.90;;;;;;5059265;28;20457;-71
2021/10/04 01:11:25;;;;;;;13.03;12.43;;;12.30;99.90;;;;;;5056634;28;20490;-72
2021/10/04 01:13:52;;;;;;;12.90;12.30;;;12.30;99.90;;;;;;5058114;28;20463;-71
2021/10/04 01:16:19;;;;;;;13.40;12.80;;;12.30;99.90;;;;;;5062128;28;20453;-71
2021/10/04 01:18:46;;;;;;;13.13;12.23;;;12.30;99.90;;;;;;5067178;28;20479;-71
2021/10/04 01:21:14;;;;;;;12.63;12.03;;;12.30;99.90;;;;;;5063965;28;20490;-73
2021/10/04 01:23:41;;;;;;;12.70;11.80;;;12.30;99.90;;;;;;5062553;28;20466;-73
2021/10/04 01:26:08;;;;;;;13.47;12.30;;;12.30;99.90;;;;;;5060944;28;20490;-73
2021/10/04 01:28:35;;;;;;;12.90;12.07;;;12.30;99.90;;;;;;5064061;28;20474;-71
2021/10/04 01:31:02;;;;;;;12.60;11.87;;;12.30;99.90;;;;;;5059121;28;20510;-73
2021/10/04 01:33:29;;;;;;;12.27;11.67;;;12.20;99.90;;;;;;5066295;28;20473;-71
2021/10/04 01:35:55;;;;;;;12.50;11.87;;;12.30;99.90;;;;;;5063873;28;20569;-71
2021/10/04 01:38:24;;;;;;;13.03;12.30;;;12.30;99.90;;;;;;5058804;28;20458;-71
2021/10/04 01:40:50;;;;;;;12.70;12.10;;;12.30;99.90;;;;;;5060004;28;21142;-71
2021/10/04 01:43:17;;;;;;;12.67;11.87;;;12.30;99.90;;;;;;5058214;28;20454;-71
2021/10/04 01:45:44;;;;;;;12.70;12.10;;;12.30;99.90;;;;;;5056899;28;20458;-70
2021/10/04 01:48:11;;;;;;;13.33;12.33;;;12.30;99.90;;;;;;5062883;28;20462;-73
2021/10/04 01:50:38;;;;;;;12.50;11.90;;;12.30;99.90;;;;;;5061048;28;20459;-70
2021/10/04 01:53:06;;;;;;;13.53;12.60;;;12.40;99.90;;;;;;5060805;28;20462;-71
2021/10/04 01:55:35;;;;;;;13.00;12.40;;;12.40;99.90;;;;;;5054568;28;20454;-71
2021/10/04 01:58:02;;;;;;;13.37;12.50;;;12.40;99.90;;;;;;5066600;28;20463;-71
2021/10/04 02:00:29;;;;;;;12.43;11.93;;;12.40;99.90;;;;;;5065439;28;21214;-71
2021/10/04 02:02:56;;;;;;;12.70;11.93;;;12.40;99.90;;;;;;5065891;28;20461;-71
2021/10/04 02:05:25;;;;;;;13.57;12.67;;;12.40;99.90;;;;;;5064110;28;20458;-71
2021/10/04 02:07:52;;;;;;;13.17;12.57;;;12.30;99.90;;;;;;5064390;28;20460;-72
2021/10/04 02:10:22;;;;;;;13.70;12.80;;;12.30;99.90;;;;;;5022763;28;1055929;-71
2021/10/04 02:12:50;;;;;;;13.20;12.50;;;12.30;99.90;;;;;;5068894;28;20462;-73
2021/10/04 02:15:18;;;;;;;13.17;12.43;;;12.30;99.90;;;;;;5061720;28;20451;-70
2021/10/04 02:17:45;;;;;;;13.67;12.87;;;12.30;99.90;;;;;;5059573;28;20540;-71
2021/10/04 02:20:15;;;;;;;13.13;12.50;;;12.30;99.90;;;;;;5056722;28;20463;-70
2021/10/04 02:22:42;;;;;;;13.10;12.40;;;12.30;99.90;;;;;;5059057;28;20470;-71
2021/10/04 02:25:10;;;;;;;12.67;12.07;;;12.20;99.90;;;;;;5064813;28;20486;-71
2021/10/04 02:27:38;;;;;;;13.13;12.57;;;12.20;99.90;;;;;;5066188;28;20462;-72
2021/10/04 02:30:10;;;;;;;13.37;12.53;;;12.20;99.90;;;;;;5065654;28;20546;-70
2021/10/04 02:32:37;;;;;;;12.67;11.97;;;12.10;99.90;;;;;;5063973;28;20972;-71
2021/10/04 02:35:04;;;;;;;12.80;12.00;;;12.10;99.90;;;;;;5062068;28;20871;-71
2021/10/04 02:37:31;;;;;;;12.83;12.23;;;12.10;99.90;;;;;;5064086;28;20459;-71
2021/10/04 02:39:58;;;;;;;12.97;12.27;;;12.10;99.90;;;;;;5069473;28;20451;-71
2021/10/04 02:42:25;;;;;;;12.80;12.20;;;12.00;99.90;;;;;;5061346;28;20494;-71
2021/10/04 02:44:51;;;;;;;13.07;12.40;;;12.00;99.90;;;;;;5062356;28;20466;-71
2021/10/04 02:47:20;;;;;;;13.77;13.07;;;11.90;99.90;;;;;;5060115;28;20466;-71
2021/10/04 02:49:47;;;;;;;13.43;12.33;;;11.90;99.90;;;;;;5053940;28;20456;-71
2021/10/04 02:52:16;;;;;;;13.70;12.97;;;11.90;99.90;;;;;;5066058;28;20527;-71
2021/10/04 02:54:44;;;;;;;13.03;12.20;;;11.90;99.90;;;;;;5060210;28;20495;-71
2021/10/04 02:57:11;;;;;;;12.97;12.47;;;12.00;99.90;;;;;;5062251;28;20535;-71
2021/10/04 02:59:38;;;;;;;13.73;12.50;;;11.90;99.90;;;;;;5058569;28;20459;-71
2021/10/04 03:02:05;;;;;;;12.90;12.20;;;11.80;99.90;;;;;;5059540;28;20479;-72
2021/10/04 03:04:33;;;;;;;14.13;13.17;;;11.80;99.90;;;;;;5059339;28;20485;-73
2021/10/04 03:07:00;;;;;;;13.20;12.50;;;11.80;99.90;;;;;;5065100;28;20455;-70
2021/10/04 03:09:27;;;;;;;13.67;13.07;;;11.80;99.90;;;;;;5066884;28;20523;-70
2021/10/04 03:11:54;;;;;;;13.17;12.37;;;11.80;99.90;;;;;;5059456;28;20507;-71
2021/10/04 03:14:22;;;;;;;13.50;12.70;;;11.80;99.90;;;;;;5062182;28;20459;-71
2021/10/04 03:16:50;;;;;;;13.30;12.60;;;11.80;99.90;;;;;;5059616;28;20456;-71
2021/10/04 03:19:17;;;;;;;12.70;12.10;;;11.70;99.90;;;;;;5062168;28;20554;-70
2021/10/04 03:21:45;;;;;;;13.33;12.53;;;11.70;99.90;;;;;;5069025;28;20483;-70
2021/10/04 03:24:13;;;;;;;13.63;12.60;;;11.60;99.90;;;;;;5056337;28;20970;-71
2021/10/04 03:26:40;;;;;;;13.97;12.83;;;11.60;99.90;;;;;;5057592;28;20555;-70
2021/10/04 03:29:09;;;;;;;12.60;12.00;;;11.60;99.90;;;;;;5061674;28;20463;-70
2021/10/04 03:31:36;;;;;;;13.00;11.97;;;11.60;99.90;;;;;;5061805;28;20497;-73
2021/10/04 03:34:03;;;;;;;13.33;12.63;;;11.60;99.90;;;;;;5066204;28;20453;-71
2021/10/04 03:36:31;;;;;;;12.87;12.07;;;11.70;99.90;;;;;;5054950;28;20863;-70
2021/10/04 03:38:59;;;;;;;13.00;12.40;;;11.60;99.90;;;;;;5058631;28;20468;-70
2021/10/04 03:41:26;;;;;;;14.13;12.93;;;11.60;99.90;;;;;;5060636;28;21010;-70
2021/10/04 03:43:54;;;;;;;14.07;13.30;;;11.60;99.90;;;;;;5059071;28;21073;-70
2021/10/04 03:46:21;;;;;;;13.00;12.17;;;11.60;99.90;;;;;;5061184;28;20487;-70
2021/10/04 03:48:48;;;;;;;13.23;12.43;;;11.60;99.90;;;;;;5059286;28;20463;-70
2021/10/04 03:51:15;;;;;;;13.20;12.50;;;11.50;99.90;;;;;;5067712;28;20453;-71
2021/10/04 03:53:42;;;;;;;13.60;12.90;;;11.50;99.90;;;;;;5052179;28;20786;-71
2021/10/04 03:56:11;;;;;;;13.03;12.43;;;11.50;99.90;;;;;;5060591;28;20462;-70
2021/10/04 03:58:38;;;;;;;13.53;12.50;;;11.50;99.90;;;;;;5054840;28;20813;-71
2021/10/04 04:01:05;;;;;;;13.10;12.30;;;11.60;99.90;;;;;;5062642;28;20482;-71
2021/10/04 04:03:32;;;;;;;13.60;12.80;;;11.60;99.90;;;;;;5052872;28;20522;-71
2021/10/04 04:05:59;;;;;;;13.90;12.90;;;11.50;99.90;;;;;;5060653;28;20450;-70
2021/10/04 04:08:28;;;;;;;14.10;13.40;;;11.60;99.90;;;;;;5055638;28;20455;-70
2021/10/04 04:10:55;;;;;;;13.97;13.20;;;11.60;99.90;;;;;;5055272;28;20578;-72
2021/10/04 04:13:23;;;;;;;12.97;12.37;;;11.60;99.90;;;;;;5057744;28;20976;-70
2021/10/04 04:15:50;;;;;;;13.67;12.97;;;11.60;99.90;;;;;;5060265;28;20463;-70
2021/10/04 04:18:18;;;;;;;14.90;13.43;;;11.60;99.90;;;;;;5064741;28;20482;-70
2021/10/04 04:20:45;;;;;;;13.63;13.03;;;11.60;99.90;;;;;;5058723;28;20581;-70
2021/10/04 04:23:12;;;;;;;15.27;13.67;;;11.60;99.90;;;;;;5056535;28;20499;-72
2021/10/04 04:25:39;;;;;;;14.30;13.50;;;11.60;99.90;;;;;;5058560;28;20578;-70
2021/10/04 04:28:06;;;;;;;15.47;14.27;;;11.60;99.90;;;;;;5062024;28;20573;-71
2021/10/04 04:30:34;;;;;;;14.80;14.00;;;11.70;99.90;;;;;;5055563;28;20491;-70
2021/10/04 04:33:01;;;;;;;14.00;13.30;;;11.80;99.90;;;;;;5062270;28;20459;-72
2021/10/04 04:35:29;;;;;;;14.53;13.70;;;11.80;99.90;;;;;;5057776;28;20464;-72
2021/10/04 04:37:56;;;;;;;15.17;13.73;;;11.80;99.90;;;;;;5059440;28;20479;-71
2021/10/04 04:40:23;;;;;;;14.23;13.50;;;11.80;99.90;;;;;;5061052;28;20460;-71
2021/10/04 04:42:50;;;;;;;14.80;13.90;;;11.90;99.90;;;;;;5057131;28;20471;-70
2021/10/04 04:45:19;;;;;;;16.67;15.30;;;11.90;99.90;;;;;;5054535;28;20820;-70
2021/10/04 04:47:49;;;;;;;14.80;14.00;;;11.90;99.90;;;;;;5057340;28;20459;-70
2021/10/04 04:50:17;;;;;;;15.57;14.50;;;11.80;99.90;;;;;;5055087;28;20451;-72
2021/10/04 04:52:44;;;;;;;14.83;14.03;;;11.90;99.90;;;;;;5064101;28;20463;-70
2021/10/04 04:55:11;;;;;;;15.33;14.40;;;11.90;99.90;;;;;;5061476;28;20466;-71
2021/10/04 04:57:38;;;;;;;14.27;13.57;;;11.90;99.90;;;;;;5061516;28;20459;-70
2021/10/04 05:00:07;;;;;;;17.23;13.70;;;12.00;99.90;;;;;;5057161;28;20810;-70
2021/10/04 05:02:36;;;;;;;15.30;14.33;;;12.00;99.90;;;;;;5055117;28;20495;-70
2021/10/04 05:05:05;;;;;;;15.57;14.37;;;11.90;99.90;;;;;;5061695;28;20513;-70
2021/10/04 05:07:32;;;;;;;15.13;14.33;;;12.00;99.90;;;;;;5054624;28;20466;-70
2021/10/04 05:09:59;;;;;;;14.40;13.70;;;12.00;99.90;;;;;;5064348;28;20472;-70
2021/10/04 05:12:26;;;;;;;14.93;14.13;;;11.90;99.90;;;;;;5058013;28;20529;-70
2021/10/04 05:14:53;;;;;;;14.97;14.07;;;12.00;99.90;;;;;;5058884;28;20467;-72
2021/10/04 05:17:20;;;;;;;15.00;13.87;;;12.00;99.90;;;;;;5059995;28;20483;-71
2021/10/04 05:19:47;;;;;;;14.63;13.30;;;12.00;99.90;;;;;;5053704;28;20465;-70
2021/10/04 05:22:16;;;;;;;15.00;14.23;;;11.90;99.90;;;;;;5050474;28;20490;-71
2021/10/04 05:24:43;;;;;;;16.17;14.97;;;12.00;99.90;;;;;;5057291;28;20487;-70
2021/10/04 05:27:09;;;;;;;15.60;14.50;;;11.90;99.90;;;;;;5059629;28;20540;-71
2021/10/04 05:29:38;;;;;;;17.03;15.93;;;11.80;99.90;;;;;;5057724;28;20929;-70
2021/10/04 05:32:06;;;;;;;17.03;16.10;;;11.80;99.90;;;;;;5053975;28;20538;-70
2021/10/04 05:34:33;;;;;;;17.07;16.27;;;11.70;99.90;;;;;;5056597;28;20541;-73
2021/10/04 05:37:00;;;;;;;16.60;15.40;;;11.60;99.90;;;;;;5062388;28;20802;-72
2021/10/04 05:39:28;;;;;;;17.13;15.90;;;11.50;99.90;;;;;;5058382;28;20466;-70
2021/10/04 05:41:55;;;;;;;16.67;15.47;;;11.60;99.90;;;;;;5058770;28;20495;-69
2021/10/04 05:44:22;;;;;;;16.80;15.70;;;11.50;99.90;;;;;;5055302;28;20492;-70
2021/10/04 05:46:49;;;;;;;16.60;15.30;;;11.50;99.90;;;;;;5057906;28;20800;-71
2021/10/04 05:49:16;;;;;;;17.07;15.80;;;11.50;99.90;;;;;;5058994;28;20452;-70
2021/10/04 05:51:43;;;;;;;17.87;16.23;;;11.50;99.90;;;;;;5060450;28;20463;-70
2021/10/04 05:54:09;;;;;;;18.27;17.07;;;11.50;99.90;;;;;;5060100;28;20458;-72
2021/10/04 05:56:38;;;;;;;16.63;15.50;;;11.50;99.90;;;;;;5056065;28;20460;-71
2021/10/04 05:59:05;;;;;;;34.30;18.30;;;11.50;99.90;;;;;;5058420;28;20470;-70
2021/10/04 06:01:32;;;;;;;16.40;15.50;;;11.50;99.90;;;;;;5058007;28;20457;-72
2021/10/04 06:03:59;;;;;;;22.33;16.47;;;11.50;99.90;;;;;;5054871;28;20496;-74
2021/10/04 06:06:26;;;;;;;17.33;16.03;;;11.50;99.90;;;;;;5055137;28;21269;-69
2021/10/04 06:08:53;;;;;;;19.13;17.73;;;11.50;99.90;;;;;;5054570;28;20469;-70
2021/10/04 06:11:20;;;;;;;17.70;16.23;;;11.60;99.90;;;;;;5057625;28;20530;-70
2021/10/04 06:13:48;;;;;;;17.83;16.50;;;11.60;99.90;;;;;;5060705;28;20548;-70
2021/10/04 06:16:15;;;;;;;18.27;16.90;;;11.60;99.90;;;;;;5056618;28;20450;-70
2021/10/04 06:18:42;;;;;;;17.70;16.40;;;11.60;99.90;;;;;;5061466;28;20478;-71
2021/10/04 06:21:09;;;;;;;17.67;16.47;;;11.70;99.90;;;;;;5059723;28;20473;-70
2021/10/04 06:23:36;;;;;;;18.67;16.93;;;11.70;99.90;;;;;;5057796;28;20550;-70
2021/10/04 06:26:03;;;;;;;19.50;16.13;;;11.70;99.90;;;;;;5058842;28;20920;-69
2021/10/04 06:28:31;;;;;;;17.07;15.80;;;11.90;99.90;;;;;;5052791;28;20538;-72
2021/10/04 06:30:59;;;;;;;16.87;15.47;;;11.90;99.90;;;;;;5057300;28;20459;-69
2021/10/04 06:33:26;;;;;;;16.60;15.50;;;12.00;99.90;;;;;;5054739;28;20495;-70
2021/10/04 06:35:53;;;;;;;17.00;15.63;;;12.10;99.90;;;;;;5053090;28;20945;-70
2021/10/04 06:38:19;;;;;;;17.30;15.70;;;12.20;99.90;;;;;;5058788;28;20486;-70
2021/10/04 06:40:46;;;;;;;17.07;15.87;;;12.20;99.90;;;;;;5055438;28;20473;-70
2021/10/04 06:43:14;;;;;;;17.90;16.33;;;12.30;99.90;;;;;;5057940;28;20491;-70
2021/10/04 06:45:40;;;;;;;17.13;15.77;;;12.30;99.90;;;;;;5047925;28;20467;-71
2021/10/04 06:48:09;;;;;;;16.97;15.97;;;12.40;99.90;;;;;;5059393;28;20459;-71
2021/10/04 06:50:36;;;;;;;16.73;15.63;;;12.40;99.90;;;;;;5056116;28;20463;-70
2021/10/04 06:53:03;;;;;;;17.83;16.07;;;12.50;99.90;;;;;;5053986;28;20482;-70
2021/10/04 06:55:30;;;;;;;17.93;16.23;;;12.50;99.90;;;;;;5052649;28;20467;-70
2021/10/04 06:57:57;;;;;;;19.60;17.27;;;12.60;99.90;;;;;;5056630;28;20471;-70
2021/10/04 07:00:24;;;;;;;18.03;16.40;;;12.60;99.90;;;;;;5055881;28;20798;-70
2021/10/04 07:02:52;;;;;;;26.80;19.13;;;12.70;99.90;;;;;;5051454;28;20483;-71
2021/10/04 07:05:22;;;;;;;18.03;16.20;;;12.80;99.90;;;;;;5050287;28;20469;-70
2021/10/04 07:07:51;;;;;;;17.53;16.07;;;12.90;99.90;;;;;;5045794;28;21245;-70
2021/10/04 07:10:19;;;;;;;19.07;17.60;;;12.80;99.90;;;;;;5057364;28;20488;-70
2021/10/04 07:12:46;;;;;;;19.23;17.73;;;12.90;99.90;;;;;;5060446;28;20521;-70
2021/10/04 07:15:13;;;;;;;17.17;15.97;;;13.00;99.90;;;;;;5054966;28;20460;-70
2021/10/04 07:17:40;;;;;;;18.57;17.13;;;13.00;99.90;;;;;;5055055;28;20506;-70
2021/10/04 07:20:08;;;;;;;17.83;16.50;;;13.00;99.90;;;;;;5054967;28;20814;-70
2021/10/04 07:22:37;;;;;;;18.27;16.83;;;13.10;99.90;;;;;;5054899;28;22377;-70
2021/10/04 07:25:05;;;;;;;17.97;16.50;;;13.00;99.90;;;;;;5052955;28;21408;-69
2021/10/04 07:27:32;;;;;;;17.77;16.27;;;13.00;99.90;;;;;;5052999;28;20470;-70
2021/10/04 07:29:59;;;;;;;17.57;16.20;;;13.10;99.90;;;;;;5056136;28;20509;-70
2021/10/04 07:32:26;;;;;;;17.87;16.37;;;13.10;99.90;;;;;;5052957;28;20471;-72
2021/10/04 07:34:53;;;;;;;21.57;16.43;;;13.10;99.90;;;;;;5051409;28;20866;-70
2021/10/04 07:37:20;;;;;;;18.13;16.70;;;13.10;99.90;;;;;;5055287;28;20479;-72
2021/10/04 07:39:49;;;;;;;17.97;16.60;;;13.10;99.90;;;;;;5049824;28;20503;-69
2021/10/04 07:42:16;;;;;;;17.83;16.00;;;13.10;99.90;;;;;;5053866;28;20516;-71
2021/10/04 07:44:43;;;;;;;17.60;16.30;;;13.00;99.90;;;;;;5051800;28;20456;-70
2021/10/04 07:47:10;;;;;;;16.67;15.57;;;13.10;99.90;;;;;;5056582;28;20565;-70
2021/10/04 07:49:37;;;;;;;17.60;16.40;;;13.20;99.90;;;;;;5059610;28;20459;-70
2021/10/04 07:52:04;;;;;;;16.33;14.90;;;13.20;99.90;;;;;;5061007;28;20491;-71
2021/10/04 07:54:31;;;;;;;15.67;14.87;;;13.30;99.90;;;;;;5058635;28;20451;-71
2021/10/04 07:57:00;;;;;;;16.40;15.20;;;13.40;99.90;;;;;;5057034;28;20465;-73
2021/10/04 07:59:27;;;;;;;16.50;14.83;;;13.30;99.90;;;;;;5051924;28;20724;-70
2021/10/04 08:01:54;;;;;;;16.00;15.00;;;13.40;99.90;;;;;;5051676;28;20578;-70
2021/10/04 08:04:21;;;;;;;16.03;15.23;;;13.50;99.90;;;;;;5054669;28;20491;-71
2021/10/04 08:06:48;;;;;;;17.30;15.77;;;13.60;99.90;;;;;;5056470;28;20464;-70
2021/10/04 08:09:15;;;;;;;16.43;15.33;;;13.60;99.90;;;;;;5060157;28;20479;-71
2021/10/04 08:11:42;;;;;;;15.50;14.70;;;13.70;99.90;;;;;;5056548;28;20521;-70
2021/10/04 08:14:10;;;;;;;17.90;16.40;;;13.80;99.90;;;;;;5054885;28;20467;-70
2021/10/04 08:16:37;;;;;;;18.33;16.57;;;13.80;99.90;;;;;;5050089;28;20455;-70
2021/10/04 08:19:04;;;;;;;17.17;16.07;;;13.90;99.90;;;;;;5050410;28;20492;-71
2021/10/04 08:21:31;;;;;;;17.97;16.30;;;14.00;99.90;;;;;;5058094;28;20475;-70
2021/10/04 08:23:59;;;;;;;20.87;16.80;;;14.10;99.90;;;;;;5052639;28;20556;-71
2021/10/04 08:26:27;;;;;;;17.43;16.13;;;14.30;99.90;;;;;;5054200;28;20472;-70
2021/10/04 08:28:54;;;;;;;18.57;16.80;;;14.40;99.90;;;;;;5058099;28;20612;-71
2021/10/04 08:31:29;;;;;;;17.43;15.87;;;14.50;99.90;;;;;;5053953;28;20455;-71
2021/10/04 08:33:57;;;;;;;18.27;16.77;;;14.50;99.90;;;;;;5052943;28;20458;-71
2021/10/04 08:36:24;;;;;;;17.50;16.40;;;14.50;99.90;;;;;;5050954;28;20516;-70
2021/10/04 08:38:51;;;;;;;17.70;16.30;;;14.50;99.90;;;;;;5057865;28;20474;-70
2021/10/04 08:41:19;;;;;;;17.27;15.87;;;14.70;99.90;;;;;;5056292;28;20474;-70
2021/10/04 08:43:50;;;;;;;18.33;15.53;;;14.80;99.90;;;;;;5053200;28;20491;-70
2021/10/04 08:46:17;;;;;;;17.50;15.80;;;14.90;99.90;;;;;;5046882;28;20464;-70
2021/10/04 08:48:47;;;;;;;16.40;15.50;;;14.90;99.90;;;;;;5058900;28;20454;-71
2021/10/04 08:51:14;;;;;;;16.60;15.13;;;14.90;99.90;;;;;;5051033;28;20467;-70
2021/10/04 08:53:42;;;;;;;17.70;16.17;;;15.10;99.90;;;;;;5055022;28;20893;-72
2021/10/04 08:56:10;;;;;;;16.13;15.07;;;15.20;99.90;;;;;;5053449;28;20522;-70
2021/10/04 08:58:37;;;;;;;22.80;16.40;;;15.20;99.90;;;;;;5055645;28;20477;-71
2021/10/04 09:01:04;;;;;;;16.77;15.33;;;15.30;99.90;;;;;;5051102;28;20623;-71
2021/10/04 09:03:45;;;;;;;17.53;16.00;;;15.30;99.90;;;;;;5050689;28;20851;-71
2021/10/04 09:06:25;;;;;;;17.97;16.87;;;15.50;99.90;;;;;;5055815;28;20466;-70
2021/10/04 09:08:54;;;;;;;17.13;16.10;;;15.50;99.90;;;;;;5050297;28;20491;-70
2021/10/04 09:11:30;;;;;;;22.50;20.40;;;15.70;99.90;;;;;;5051266;28;20480;-73
2021/10/04 09:14:03;;;;;;;16.60;15.50;;;15.90;99.90;;;;;;5058457;28;20648;-72
2021/10/04 09:16:57;;;;;;;16.60;15.40;;;15.90;99.90;;;;;;5057205;28;20936;-72
2021/10/04 09:19:27;;;;;;;19.10;17.60;;;16.10;99.90;;;;;;5055362;28;20481;-71
2021/10/04 09:22:12;;;;;;;17.93;16.93;;;16.40;99.90;;;;;;5051343;28;20471;-70
2021/10/04 09:24:42;;;;;;;16.33;15.33;;;16.70;99.90;;;;;;5054835;28;20491;-71
2021/10/04 09:27:25;;;;;;;18.10;16.90;;;16.90;99.90;;;;;;5052354;28;20467;-72
2021/10/04 09:29:54;;;;;;;17.60;16.10;;;16.90;99.90;;;;;;5053755;28;20459;-71
2021/10/04 09:32:25;;;;;;;18.47;17.03;;;16.80;99.90;;;;;;5055402;28;20460;-71
2021/10/04 09:35:15;;;;;;;16.20;15.33;;;17.00;99.90;;;;;;5053805;28;20976;-71
2021/10/04 09:37:43;;;;;;;15.67;14.13;;;17.10;99.90;;;;;;5056947;28;20954;-70
2021/10/04 09:40:26;;;;;;;17.10;15.90;;;17.30;99.90;;;;;;5053757;28;20890;-71
2021/10/04 09:42:54;;;;;;;16.13;14.77;;;17.40;99.90;;;;;;5048862;28;20467;-70
2021/10/04 09:45:21;;;;;;;14.97;14.10;;;17.50;99.90;;;;;;5057948;28;20468;-73
2021/10/04 09:47:49;;;;;;;16.13;14.73;;;17.60;99.90;;;;;;5052334;28;20819;-72
2021/10/04 09:50:19;;;;;;;17.10;16.00;;;17.50;99.90;;;;;;5061284;28;20459;-72
2021/10/04 09:52:47;;;;;;;15.60;14.47;;;17.50;99.90;;;;;;5056438;28;20831;-71
2021/10/04 09:55:23;;;;;;;16.20;15.13;;;17.70;99.90;;;;;;5059464;28;20975;-71
2021/10/04 09:58:09;;;;;;;16.73;15.10;;;18.00;99.90;;;;;;5050338;28;20466;-71
2021/10/04 10:00:39;;;;;;;15.97;14.83;;;18.20;99.90;;;;;;5054806;28;20684;-71
2021/10/04 10:03:07;;;;;;;15.77;14.77;;;18.20;99.90;;;;;;5051042;28;20520;-70
2021/10/04 10:05:37;;;;;;;15.93;15.03;;;18.50;99.90;;;;;;5057669;28;20460;-70
2021/10/04 10:08:05;;;;;;;15.57;14.70;;;18.30;99.90;;;;;;5059697;28;21057;-71
2021/10/04 10:10:32;;;;;;;15.50;14.70;;;18.20;99.90;;;;;;5058474;28;20459;-72
2021/10/04 10:12:59;;;;;;;16.53;15.53;;;18.00;99.90;;;;;;5048796;28;20464;-71
2021/10/04 10:15:29;;;;;;;14.77;14.17;;;18.20;99.90;;;;;;5056809;28;20513;-72
2021/10/04 10:18:02;;;;;;;15.07;14.30;;;18.40;99.90;;;;;;5056590;28;20490;-71
2021/10/04 10:20:31;;;;;;;15.60;14.50;;;18.50;99.90;;;;;;5055249;28;20836;-72
2021/10/04 10:22:59;;;;;;;14.63;13.73;;;18.50;99.90;;;;;;5056996;28;20499;-70
2021/10/04 10:25:31;;;;;;;14.63;13.67;;;18.60;99.90;;;;;;5058609;28;20473;-70
2021/10/04 10:27:58;;;;;;;15.37;14.00;;;18.30;99.90;;;;;;5062126;28;20465;-72
2021/10/04 10:30:27;;;;;;;13.60;12.90;;;18.10;99.90;;;;;;5055498;28;20458;-71
2021/10/04 10:32:56;;;;;;;15.10;14.10;;;17.80;99.90;;;;;;5059011;28;20462;-70
2021/10/04 10:35:49;;;;;;;15.03;14.03;;;17.70;99.90;;;;;;5051736;28;20618;-72
2021/10/04 10:38:38;;;;;;;15.00;14.20;;;17.80;99.90;;;;;;5050650;28;20466;-70
2021/10/04 10:41:19;;;;;;;14.30;13.60;;;18.20;99.90;;;;;;5056593;28;20452;-72
2021/10/04 10:44:07;;;;;;;15.53;14.40;;;18.50;99.90;;;;;;5060101;28;20483;-72
2021/10/04 10:46:46;;;;;;;14.77;13.67;;;19.00;99.90;;;;;;5057017;28;20454;-70
2021/10/04 10:49:13;;;;;;;14.43;13.47;;;19.80;99.90;;;;;;5059968;28;20941;-72
2021/10/04 10:52:10;;;;;;;15.10;14.10;;;19.80;99.90;;;;;;5061140;28;20547;-70
2021/10/04 10:54:41;;;;;;;14.53;13.60;;;20.00;99.90;;;;;;5049816;28;20458;-71
2021/10/04 10:57:07;;;;;;;14.47;13.70;;;19.90;99.90;;;;;;5057231;28;20462;-71
2021/10/04 10:59:34;;;;;;;14.87;14.17;;;19.40;99.90;;;;;;5051257;28;20460;-70
2021/10/04 11:02:01;;;;;;;16.33;15.13;;;19.10;99.90;;;;;;5052317;28;20911;-70
2021/10/04 11:04:40;;;;;;;15.67;14.53;;;19.30;99.90;;;;;;5052410;28;20494;-73
2021/10/04 11:07:07;;;;;;;15.27;14.57;;;19.10;99.90;;;;;;5060887;28;20458;-70
2021/10/04 11:10:06;;;;;;;15.20;14.40;;;19.80;99.90;;;;;;5054935;28;20459;-73
2021/10/04 11:13:03;;;;;;;14.53;13.80;;;20.30;99.90;;;;;;5051083;28;20505;-69
2021/10/04 11:15:30;;;;;;;14.17;13.47;;;20.60;99.90;;;;;;5059015;28;20949;-70
2021/10/04 11:17:57;;;;;;;14.80;13.77;;;20.70;99.90;;;;;;5058626;28;20513;-70
2021/10/04 11:20:25;;;;;;;14.50;13.70;;;20.80;99.90;;;;;;5059783;28;20468;-70
2021/10/04 11:23:01;;;;;;;14.50;13.80;;;20.90;99.90;;;;;;5058367;28;20470;-69
2021/10/04 11:25:30;;;;;;;15.10;14.07;;;20.90;99.90;;;;;;5052385;28;21005;-74
2021/10/04 11:27:57;;;;;;;14.40;13.80;;;20.90;99.90;;;;;;5052001;28;20538;-70
2021/10/04 11:30:25;;;;;;;14.93;14.03;;;20.70;99.90;;;;;;5054571;28;20759;-69
2021/10/04 11:33:06;;;;;;;15.30;14.20;;;20.90;99.90;;;;;;5051439;28;20496;-69
2021/10/04 11:35:34;;;;;;;14.47;13.50;;;20.70;99.90;;;;;;5048629;28;20468;-71
2021/10/04 11:38:06;;;;;;;14.60;13.73;;;20.60;99.90;;;;;;5056314;28;20457;-70
2021/10/04 11:40:35;;;;;;;14.30;13.60;;;20.50;99.90;;;;;;5045557;28;20456;-70
2021/10/04 11:43:02;;;;;;;15.30;14.10;;;20.60;99.90;;;;;;5048095;28;20474;-69
2021/10/04 11:45:30;;;;;;;14.90;14.10;;;21.00;99.90;;;;;;5043563;28;20518;-72
2021/10/04 11:47:57;;;;;;;14.50;13.73;;;20.80;99.90;;;;;;5054412;28;21346;-73
2021/10/04 11:50:26;;;;;;;14.43;13.63;;;21.20;99.90;;;;;;5046987;28;20821;-72
2021/10/04 11:52:54;;;;;;;15.17;14.20;;;21.60;99.90;;;;;;5055527;28;20490;-69
2021/10/04 11:55:21;;;;;;;14.97;14.20;;;21.40;99.50;;;;;;5043481;28;20466;-72
2021/10/04 11:57:49;;;;;;;15.03;14.33;;;21.40;99.60;;;;;;5047306;28;20448;-71
2021/10/04 12:00:17;;;;;;;15.47;14.43;;;21.70;99.90;;;;;;5056201;28;20572;-69
2021/10/04 12:02:46;;;;;;;15.57;14.53;;;21.80;99.40;;;;;;5056675;28;20500;-69
2021/10/04 12:05:17;;;;;;;14.20;13.50;;;21.40;99.00;;;;;;5049480;28;20503;-70
2021/10/04 12:08:05;;;;;;;14.67;13.90;;;21.40;99.20;;;;;;5055831;28;20458;-70
2021/10/04 12:10:43;;;;;;;14.97;14.07;;;21.40;99.10;;;;;;5054409;28;20478;-69
2021/10/04 12:13:12;;;;;;;15.50;14.60;;;21.40;99.80;;;;;;5057313;28;20474;-69
2021/10/04 12:15:41;;;;;;;15.23;13.90;;;20.90;99.20;;;;;;5048434;28;20917;-74
2021/10/04 12:18:13;;;;;;;14.67;13.93;;;21.60;99.60;;;;;;5055249;28;20856;-69
2021/10/04 12:20:40;;;;;;;14.93;14.13;;;21.80;97.70;;;;;;5056620;28;20494;-69
2021/10/04 12:23:15;;;;;;;14.93;13.77;;;22.30;97.90;;;;;;5048080;28;20898;-69
2021/10/04 12:25:42;;;;;;;15.60;14.37;;;22.60;97.20;;;;;;5048433;28;20494;-72
2021/10/04 12:28:15;;;;;;;14.47;13.57;;;22.30;97.40;;;;;;5057165;28;20913;-69
2021/10/04 12:30:44;;;;;;;14.13;13.33;;;22.60;97.50;;;;;;5055809;28;20482;-69
2021/10/04 12:33:11;;;;;;;14.37;13.57;;;22.70;97.00;;;;;;5047923;28;20458;-70